createdAt,value
2022-10-02T00:01:25.932Z,13.73
2022-10-02T00:03:53.239Z,13.75
2022-10-02T00:06:26.002Z,13.77
2022-10-02T00:08:59.276Z,13.75
2022-10-02T00:11:40.381Z,13.74
2022-10-02T00:14:11.761Z,13.81
2022-10-02T00:16:42.254Z,13.81
2022-10-02T00:19:11.127Z,13.83
2022-10-02T00:22:19.072Z,13.82
2022-10-02T00:25:01.484Z,13.84
2022-10-02T00:27:40.066Z,13.94
2022-10-02T00:30:11.956Z,13.99
2022-10-02T00:32:54.666Z,13.84
2022-10-02T00:35:34.413Z,13.76
2022-10-02T00:38:10.129Z,13.68
2022-10-02T00:40:58.881Z,13.75
2022-10-02T00:43:44.904Z,13.74
2022-10-02T00:46:22.559Z,13.78
2022-10-02T00:49:18.625Z,13.88
2022-10-02T00:52:19.896Z,13.93
2022-10-02T00:54:52.208Z,13.94
2022-10-02T00:57:24.651Z,13.97
2022-10-02T01:00:15.037Z,14.03
2022-10-02T01:03:00.502Z,14.20
2022-10-02T01:05:27.374Z,14.36
2022-10-02T01:07:55.432Z,14.41
2022-10-02T01:10:23.285Z,14.43
2022-10-02T01:12:50.188Z,14.51
2022-10-02T01:15:19.544Z,14.54
2022-10-02T01:17:48.078Z,14.57
2022-10-02T01:20:17.623Z,14.65
2022-10-02T01:22:56.700Z,14.67
2022-10-02T01:25:23.330Z,14.73
2022-10-02T01:27:52.479Z,14.77
2022-10-02T01:30:20.672Z,14.82
2022-10-02T01:32:53.599Z,14.88
2022-10-02T01:35:22.903Z,14.92
2022-10-02T01:37:51.059Z,14.95
2022-10-02T01:40:32.432Z,14.93
2022-10-02T01:43:02.854Z,14.96
2022-10-02T01:45:36.198Z,14.95
2022-10-02T01:48:34.000Z,14.92
2022-10-02T01:51:25.136Z,14.95
2022-10-02T01:54:10.283Z,14.94
2022-10-02T01:57:12.967Z,14.96
2022-10-02T02:00:04.573Z,15.02
2022-10-02T02:02:41.179Z,15.01
2022-10-02T02:05:32.183Z,14.93
2022-10-02T02:08:13.844Z,14.83
2022-10-02T02:10:55.862Z,14.80
2022-10-02T02:13:35.592Z,14.73
2022-10-02T02:16:13.364Z,14.65
2022-10-02T02:18:46.298Z,14.56
2022-10-02T02:21:22.152Z,14.46
2022-10-02T02:23:49.823Z,14.42
2022-10-02T02:26:19.758Z,14.39
2022-10-02T02:28:54.974Z,14.33
2022-10-02T02:31:27.265Z,14.31
2022-10-02T02:34:09.552Z,14.22
2022-10-02T02:36:42.448Z,14.13
2022-10-02T02:39:19.596Z,14.05
2022-10-02T02:41:57.840Z,13.93
2022-10-02T02:44:30.214Z,13.92
2022-10-02T02:47:18.863Z,13.83
2022-10-02T02:50:16.626Z,13.81
2022-10-02T02:52:57.285Z,13.83
2022-10-02T02:55:28.751Z,13.85
2022-10-02T02:58:13.444Z,13.81
2022-10-02T03:00:40.144Z,13.85
2022-10-02T03:03:07.039Z,14.00
2022-10-02T03:05:35.376Z,14.13
2022-10-02T03:08:05.300Z,13.96
2022-10-02T03:11:05.309Z,13.71
2022-10-02T03:14:01.293Z,13.63
2022-10-02T03:16:47.027Z,13.51
2022-10-02T03:19:34.532Z,13.42
2022-10-02T03:22:41.359Z,13.43
2022-10-02T03:25:26.160Z,13.46
2022-10-02T03:28:54.271Z,13.49
2022-10-02T03:31:23.403Z,13.60
2022-10-02T03:33:53.621Z,13.67
2022-10-02T03:36:21.596Z,13.75
2022-10-02T03:39:00.650Z,13.86
2022-10-02T03:41:32.964Z,14.03
2022-10-02T03:43:59.439Z,14.11
2022-10-02T03:46:26.009Z,14.18
2022-10-02T03:48:52.479Z,14.15
2022-10-02T03:51:18.822Z,14.11
2022-10-02T03:53:45.345Z,14.05
2022-10-02T03:56:28.681Z,14.03
2022-10-02T03:59:01.152Z,14.03
2022-10-02T04:01:32.472Z,13.97
2022-10-02T04:04:04.261Z,13.86
2022-10-02T04:06:41.680Z,13.85
2022-10-02T04:09:14.636Z,13.87
2022-10-02T04:11:49.024Z,13.90
2022-10-02T04:14:30.143Z,13.87
2022-10-02T04:17:15.965Z,13.84
2022-10-02T04:19:50.034Z,13.82
2022-10-02T04:22:39.802Z,13.70
2022-10-02T04:25:19.713Z,13.71
2022-10-02T04:28:10.906Z,13.71
2022-10-02T04:30:37.410Z,13.77
2022-10-02T04:33:12.862Z,13.81
2022-10-02T04:36:02.606Z,13.79
2022-10-02T04:38:41.852Z,13.79
2022-10-02T04:41:27.223Z,13.79
2022-10-02T04:44:13.067Z,13.71
2022-10-02T04:46:51.318Z,13.68
2022-10-02T04:49:32.765Z,13.60
2022-10-02T04:52:28.060Z,13.53
2022-10-02T04:55:13.218Z,13.52
2022-10-02T04:58:04.039Z,13.44
2022-10-02T05:00:57.551Z,13.44
2022-10-02T05:03:39.351Z,13.49
2022-10-02T05:06:38.665Z,13.47
2022-10-02T05:09:33.403Z,13.45
2022-10-02T05:12:21.997Z,13.46
2022-10-02T05:14:55.758Z,13.40
2022-10-02T05:17:53.862Z,13.36
2022-10-02T05:20:35.331Z,13.37
2022-10-02T05:23:04.547Z,13.37
2022-10-02T05:25:46.805Z,13.38
2022-10-02T05:28:27.321Z,13.42
2022-10-02T05:31:31.308Z,13.42
2022-10-02T05:34:21.175Z,13.35
2022-10-02T05:37:04.360Z,13.40
2022-10-02T05:39:39.338Z,13.45
2022-10-02T05:42:16.662Z,13.46
2022-10-02T05:44:50.645Z,13.44
2022-10-02T05:47:25.106Z,13.46
2022-10-02T05:49:56.310Z,13.49
2022-10-02T05:53:05.996Z,13.56
2022-10-02T05:56:00.366Z,13.67
2022-10-02T05:58:51.264Z,13.69
2022-10-02T06:01:30.664Z,13.68
2022-10-02T06:04:12.999Z,13.69
2022-10-02T06:06:48.224Z,13.67
2022-10-02T06:09:26.249Z,13.70
2022-10-02T06:12:12.456Z,13.62
2022-10-02T06:14:58.070Z,13.64
2022-10-02T06:17:30.911Z,13.58
2022-10-02T06:20:03.834Z,13.59
2022-10-02T06:22:41.283Z,13.53
2022-10-02T06:25:27.733Z,13.58
2022-10-02T06:28:35.494Z,13.59
2022-10-02T06:31:13.022Z,13.66
2022-10-02T06:33:39.459Z,13.73
2022-10-02T06:36:13.585Z,13.78
2022-10-02T06:38:48.575Z,13.84
2022-10-02T06:41:42.044Z,13.84
2022-10-02T06:44:30.836Z,13.90
2022-10-02T06:47:08.680Z,13.98
2022-10-02T06:49:53.581Z,14.13
2022-10-02T06:52:41.713Z,14.28
2022-10-02T06:55:45.249Z,14.37
2022-10-02T06:58:30.024Z,14.47
2022-10-02T07:01:15.786Z,14.55
2022-10-02T07:04:24.504Z,14.59
2022-10-02T07:07:09.876Z,14.67
2022-10-02T07:10:00.755Z,14.74
2022-10-02T07:12:53.883Z,14.80
2022-10-02T07:15:40.444Z,14.82
2022-10-02T07:18:22.744Z,14.86
2022-10-02T07:21:10.133Z,14.87
2022-10-02T07:23:47.368Z,14.97
2022-10-02T07:26:28.946Z,15.10
2022-10-02T07:29:06.495Z,15.25
2022-10-02T07:32:10.837Z,15.25
2022-10-02T07:34:52.153Z,15.26
2022-10-02T07:37:36.663Z,15.22
2022-10-02T07:40:30.335Z,15.11
2022-10-02T07:43:04.370Z,15.04
2022-10-02T07:45:42.104Z,15.00
2022-10-02T07:48:28.538Z,14.98
2022-10-02T07:51:30.468Z,14.99
2022-10-02T07:54:14.104Z,15.02
2022-10-02T07:56:41.556Z,15.10
2022-10-02T07:59:16.037Z,15.12
2022-10-02T08:01:45.155Z,15.18
2022-10-02T08:04:18.702Z,15.29
2022-10-02T08:06:47.224Z,15.43
2022-10-02T08:09:24.209Z,15.56
2022-10-02T08:12:09.207Z,15.64
2022-10-02T08:14:45.338Z,15.69
2022-10-02T08:17:32.334Z,15.69
2022-10-02T08:20:13.360Z,15.70
2022-10-02T08:22:46.172Z,15.65
2022-10-02T08:25:12.492Z,15.73
2022-10-02T08:27:52.597Z,16.01
2022-10-02T08:30:19.158Z,16.23
2022-10-02T08:32:47.766Z,16.29
2022-10-02T08:35:19.621Z,16.22
2022-10-02T08:38:14.106Z,16.08
2022-10-02T08:41:00.511Z,15.90
2022-10-02T08:44:01.889Z,15.67
2022-10-02T08:47:18.697Z,15.41
2022-10-02T08:49:53.152Z,15.17
2022-10-02T08:52:38.392Z,15.05
2022-10-02T08:55:39.557Z,14.96
2022-10-02T08:58:36.222Z,15.00
2022-10-02T09:01:28.390Z,14.97
2022-10-02T09:04:31.989Z,14.92
2022-10-02T09:07:10.622Z,14.91
2022-10-02T09:09:43.099Z,15.10
2022-10-02T09:12:21.410Z,15.40
2022-10-02T09:14:56.792Z,15.64
2022-10-02T09:18:17.712Z,15.82
2022-10-02T09:21:13.808Z,16.01
2022-10-02T09:24:14.118Z,16.01
2022-10-02T09:26:43.587Z,16.01
2022-10-02T09:29:37.981Z,16.04
2022-10-02T09:32:07.512Z,16.15
2022-10-02T09:35:16.569Z,16.21
2022-10-02T09:37:55.212Z,16.32
2022-10-02T09:40:46.644Z,16.39
2022-10-02T09:43:34.756Z,16.42
2022-10-02T09:46:27.090Z,16.74
2022-10-02T09:48:59.271Z,17.27
2022-10-02T09:51:57.536Z,17.58
2022-10-02T09:54:47.730Z,17.88
2022-10-02T09:57:46.924Z,18.24
2022-10-02T10:00:22.340Z,18.28
2022-10-02T10:03:10.433Z,18.51
2022-10-02T10:05:58.667Z,19.22
2022-10-02T10:09:16.291Z,20.44
2022-10-02T10:12:05.614Z,22.06
2022-10-02T10:15:29.394Z,24.41
2022-10-02T10:18:32.647Z,26.45
2022-10-02T10:21:07.997Z,27.93
2022-10-02T10:24:31.453Z,29.20
2022-10-02T10:27:38.743Z,29.85
2022-10-02T10:30:33.232Z,30.13
2022-10-02T10:33:11.335Z,30.67
2022-10-02T10:36:05.546Z,31.07
2022-10-02T10:38:56.397Z,31.49
2022-10-02T10:41:50.636Z,32.13
2022-10-02T10:44:27.407Z,33.21
2022-10-02T10:47:08.268Z,34.26
2022-10-02T10:50:02.600Z,34.38
2022-10-02T10:53:03.880Z,34.51
2022-10-02T10:55:57.208Z,33.95
2022-10-02T10:59:04.984Z,34.24
2022-10-02T11:01:56.007Z,34.73
2022-10-02T11:05:03.151Z,33.76
2022-10-02T11:07:45.793Z,32.26
2022-10-02T11:10:29.008Z,30.67
2022-10-02T11:13:27.714Z,29.27
2022-10-02T11:16:13.169Z,28.24
2022-10-02T11:18:52.501Z,27.57
2022-10-02T11:21:58.167Z,26.21
2022-10-02T11:25:12.550Z,24.97
2022-10-02T11:27:57.676Z,24.31
2022-10-02T11:30:54.891Z,24.02
2022-10-02T11:33:51.013Z,23.65
2022-10-02T11:36:41.607Z,23.19
2022-10-02T11:39:15.466Z,22.43
2022-10-02T11:42:26.280Z,21.88
2022-10-02T11:45:19.980Z,21.39
2022-10-02T11:47:57.444Z,21.08
2022-10-02T11:50:54.860Z,21.19
2022-10-02T11:53:23.624Z,20.96
2022-10-02T11:56:31.632Z,20.62
2022-10-02T11:59:18.227Z,20.31
2022-10-02T12:01:55.619Z,20.04
2022-10-02T12:04:35.128Z,19.72
2022-10-02T12:07:42.332Z,19.37
2022-10-02T12:10:30.366Z,18.99
2022-10-02T12:13:20.980Z,18.55
2022-10-02T12:16:21.607Z,18.02
2022-10-02T12:19:06.372Z,17.79
2022-10-02T12:22:30.047Z,18.10
2022-10-02T12:25:21.414Z,19.22
2022-10-02T12:28:13.097Z,21.08
2022-10-02T12:30:49.868Z,21.29
2022-10-02T12:33:27.199Z,21.61
2022-10-02T12:36:05.321Z,22.73
2022-10-02T12:39:00.797Z,24.23
2022-10-02T12:41:38.854Z,25.58
2022-10-02T12:44:32.634Z,25.70
2022-10-02T12:47:22.861Z,27.18
2022-10-02T12:50:21.880Z,29.70
2022-10-02T12:53:07.132Z,32.98
2022-10-02T12:55:52.299Z,34.25
2022-10-02T12:58:39.523Z,33.41
2022-10-02T13:01:30.842Z,34.84
2022-10-02T13:04:39.056Z,36.98
2022-10-02T13:07:08.280Z,38.71
2022-10-02T13:09:53.175Z,39.68
2022-10-02T13:12:34.490Z,40.08
2022-10-02T13:15:23.146Z,39.21
2022-10-02T13:17:59.015Z,35.64
2022-10-02T13:20:39.731Z,32.37
2022-10-02T13:23:47.784Z,29.68
2022-10-02T13:26:29.789Z,30.08
2022-10-02T13:29:18.079Z,32.97
2022-10-02T13:31:57.701Z,35.52
2022-10-02T13:34:42.740Z,36.97
2022-10-02T13:37:09.124Z,37.63
2022-10-02T13:40:02.545Z,36.88
2022-10-02T13:42:38.023Z,36.44
2022-10-02T13:45:07.343Z,36.30
2022-10-02T13:47:44.087Z,36.73
2022-10-02T13:50:19.958Z,37.11
2022-10-02T13:53:08.148Z,36.30
2022-10-02T13:55:43.089Z,34.64
2022-10-02T13:58:34.515Z,32.30
2022-10-02T14:01:26.771Z,30.55
2022-10-02T14:04:14.706Z,28.96
2022-10-02T14:06:48.716Z,27.69
2022-10-02T14:09:42.851Z,26.42
2022-10-02T14:12:27.538Z,25.40
2022-10-02T14:15:03.569Z,24.75
2022-10-02T14:17:44.073Z,24.19
2022-10-02T14:20:26.937Z,23.63
2022-10-02T14:23:19.577Z,23.11
2022-10-02T14:26:04.847Z,22.56
2022-10-02T14:28:55.404Z,22.24
2022-10-02T14:31:37.846Z,21.88
2022-10-02T14:34:38.451Z,21.61
2022-10-02T14:37:37.838Z,21.28
2022-10-02T14:40:17.118Z,20.96
2022-10-02T14:43:01.864Z,20.78
2022-10-02T14:46:03.253Z,20.69
2022-10-02T14:48:56.476Z,20.64
2022-10-02T14:51:45.447Z,20.63
2022-10-02T14:54:31.535Z,20.65
2022-10-02T14:57:39.424Z,20.50
2022-10-02T15:00:15.912Z,20.40
2022-10-02T15:03:18.964Z,20.26
2022-10-02T15:06:22.572Z,20.22
2022-10-02T15:09:01.773Z,20.21
2022-10-02T15:11:37.381Z,20.12
2022-10-02T15:14:19.572Z,20.04
2022-10-02T15:17:07.828Z,19.97
2022-10-02T15:19:39.659Z,19.95
2022-10-02T15:22:20.163Z,19.87
2022-10-02T15:24:55.108Z,19.74
2022-10-02T15:27:31.416Z,19.62
2022-10-02T15:30:15.847Z,19.57
2022-10-02T15:32:59.093Z,19.45
2022-10-02T15:35:54.564Z,19.32
2022-10-02T15:38:26.298Z,19.26
2022-10-02T15:41:11.598Z,19.08
2022-10-02T15:44:06.672Z,18.96
2022-10-02T15:46:49.600Z,18.83
2022-10-02T15:49:53.638Z,18.71
2022-10-02T15:52:40.511Z,18.61
2022-10-02T15:55:41.501Z,18.51
2022-10-02T15:58:21.067Z,18.39
2022-10-02T16:01:12.385Z,18.23
2022-10-02T16:03:53.494Z,18.16
2022-10-02T16:06:53.428Z,18.11
2022-10-02T16:09:38.467Z,17.99
2022-10-02T16:12:27.935Z,17.92
2022-10-02T16:15:16.789Z,17.89
2022-10-02T16:18:19.955Z,17.84
2022-10-02T16:20:56.656Z,17.81
2022-10-02T16:23:54.193Z,17.71
2022-10-02T16:26:32.232Z,17.72
2022-10-02T16:29:23.832Z,17.66
2022-10-02T16:32:16.685Z,17.65
2022-10-02T16:35:22.174Z,17.55
2022-10-02T16:37:59.968Z,17.50
2022-10-02T16:40:36.436Z,17.42
2022-10-02T16:43:37.366Z,17.38
2022-10-02T16:46:12.959Z,17.37
2022-10-02T16:48:55.946Z,17.34
2022-10-02T16:51:40.334Z,17.31
2022-10-02T16:54:23.090Z,17.30
2022-10-02T16:57:04.672Z,17.27
2022-10-02T16:59:51.619Z,17.18
2022-10-02T17:02:26.148Z,17.16
2022-10-02T17:04:58.186Z,17.15
2022-10-02T17:07:30.787Z,17.10
2022-10-02T17:10:18.823Z,17.06
2022-10-02T17:13:26.983Z,16.99
2022-10-02T17:16:07.415Z,16.97
2022-10-02T17:18:43.741Z,16.95
2022-10-02T17:21:12.932Z,16.93
2022-10-02T17:24:19.927Z,16.90
2022-10-02T17:27:03.556Z,16.91
2022-10-02T17:29:39.071Z,16.89
2022-10-02T17:32:08.762Z,16.90
2022-10-02T17:34:46.510Z,16.89
2022-10-02T17:37:16.140Z,16.87
2022-10-02T17:40:01.396Z,16.80
2022-10-02T17:42:51.810Z,16.76
2022-10-02T17:45:42.951Z,16.76
2022-10-02T17:48:15.486Z,16.73
2022-10-02T17:51:00.211Z,16.67
2022-10-02T17:54:04.946Z,16.67
2022-10-02T17:56:49.837Z,16.65
2022-10-02T17:59:30.643Z,16.58
2022-10-02T18:02:09.406Z,16.57
2022-10-02T18:04:39.757Z,16.55
2022-10-02T18:07:30.989Z,16.54
2022-10-02T18:10:03.840Z,16.54
2022-10-02T18:13:03.579Z,16.49
2022-10-02T18:15:39.836Z,16.50
2022-10-02T18:18:40.318Z,16.45
2022-10-02T18:21:28.310Z,16.44
2022-10-02T18:24:17.429Z,16.41
2022-10-02T18:27:01.257Z,16.41
2022-10-02T18:29:46.497Z,16.43
2022-10-02T18:32:36.102Z,16.41
2022-10-02T18:35:15.271Z,16.41
2022-10-02T18:37:58.828Z,16.35
2022-10-02T18:40:49.260Z,16.28
2022-10-02T18:43:47.514Z,16.24
2022-10-02T18:46:25.939Z,16.22
2022-10-02T18:49:30.499Z,16.15
2022-10-02T18:52:18.210Z,16.16
2022-10-02T18:55:05.969Z,16.14
2022-10-02T18:58:04.317Z,16.09
2022-10-02T19:01:00.082Z,16.08
2022-10-02T19:03:48.284Z,16.11
2022-10-02T19:06:31.163Z,16.10
2022-10-02T19:09:03.990Z,16.08
2022-10-02T19:11:32.877Z,16.08
2022-10-02T19:14:02.135Z,16.10
2022-10-02T19:16:31.053Z,16.13
2022-10-02T19:19:20.701Z,16.13
2022-10-02T19:21:47.908Z,16.16
2022-10-02T19:24:23.312Z,16.14
2022-10-02T19:26:56.260Z,16.14
2022-10-02T19:29:37.131Z,16.12
2022-10-02T19:32:13.200Z,16.16
2022-10-02T19:34:42.046Z,16.17
2022-10-02T19:37:15.109Z,16.12
2022-10-02T19:39:48.873Z,16.07
2022-10-02T19:42:22.989Z,16.07
2022-10-02T19:44:53.375Z,16.08
2022-10-02T19:47:27.340Z,16.07
2022-10-02T19:49:59.072Z,16.08
2022-10-02T19:52:29.705Z,16.09
2022-10-02T19:54:59.894Z,16.07
2022-10-02T19:57:31.711Z,16.03
2022-10-02T20:00:00.945Z,15.99
2022-10-02T20:02:32.501Z,15.92
2022-10-02T20:05:02.102Z,15.87
2022-10-02T20:07:31.287Z,15.87
2022-10-02T20:10:02.992Z,15.85
2022-10-02T20:12:39.905Z,15.83
2022-10-02T20:15:59.242Z,15.78
2022-10-02T20:18:26.095Z,15.80
2022-10-02T20:20:59.384Z,15.77
2022-10-02T20:23:31.743Z,15.75
2022-10-02T20:26:07.030Z,15.75
2022-10-02T20:28:51.982Z,15.76
2022-10-02T20:31:35.991Z,15.78
2022-10-02T20:34:13.805Z,15.77
2022-10-02T20:37:05.842Z,15.73
2022-10-02T20:39:40.748Z,15.75
2022-10-02T20:42:19.835Z,15.71
2022-10-02T20:44:46.436Z,15.71
2022-10-02T20:47:31.667Z,15.67
2022-10-02T20:50:21.496Z,15.69
2022-10-02T20:53:06.293Z,15.66
2022-10-02T20:55:56.090Z,15.60
2022-10-02T20:58:58.714Z,15.56
2022-10-02T21:01:44.031Z,15.56
2022-10-02T21:04:49.135Z,15.54
2022-10-02T21:07:20.646Z,15.56
2022-10-02T21:10:14.853Z,15.50
2022-10-02T21:13:08.106Z,15.44
2022-10-02T21:15:46.180Z,15.41
2022-10-02T21:18:21.316Z,15.38
2022-10-02T21:21:12.705Z,15.36
2022-10-02T21:23:54.269Z,15.36
2022-10-02T21:26:40.250Z,15.30
2022-10-02T21:29:17.296Z,15.32
2022-10-02T21:32:01.603Z,15.34
2022-10-02T21:34:59.174Z,15.33
2022-10-02T21:37:39.355Z,15.32
2022-10-02T21:40:29.384Z,15.30
2022-10-02T21:43:17.264Z,15.31
2022-10-02T21:46:05.553Z,15.29
2022-10-02T21:49:04.918Z,15.25
2022-10-02T21:52:09.026Z,15.22
2022-10-02T21:55:11.989Z,15.25
2022-10-02T21:58:00.699Z,15.28
2022-10-02T22:00:28.710Z,15.30
2022-10-02T22:03:29.075Z,15.29
2022-10-02T22:06:12.462Z,15.28
2022-10-02T22:08:44.588Z,15.27
2022-10-02T22:11:21.491Z,15.24
2022-10-02T22:13:53.201Z,15.16
2022-10-02T22:16:36.291Z,15.16
2022-10-02T22:19:20.660Z,15.21
2022-10-02T22:22:05.431Z,15.23
2022-10-02T22:24:51.768Z,15.24
2022-10-02T22:27:23.667Z,15.23
2022-10-02T22:29:55.386Z,15.21
2022-10-02T22:33:01.722Z,15.20
2022-10-02T22:35:59.367Z,15.14
2022-10-02T22:38:36.349Z,15.14
2022-10-02T22:41:06.918Z,15.18
2022-10-02T22:43:44.314Z,15.20
2022-10-02T22:46:40.301Z,15.22
2022-10-02T22:49:25.121Z,15.23
2022-10-02T22:52:00.263Z,15.25
2022-10-02T22:54:32.860Z,15.21
2022-10-02T22:57:03.173Z,15.20
2022-10-02T22:59:37.847Z,15.20
2022-10-02T23:02:22.228Z,15.20
2022-10-02T23:05:05.849Z,15.17
2022-10-02T23:07:51.152Z,15.15
2022-10-02T23:10:39.714Z,15.14
2022-10-02T23:13:20.035Z,15.11
2022-10-02T23:16:08.120Z,15.10
2022-10-02T23:18:40.853Z,15.09
2022-10-02T23:21:13.152Z,15.07
2022-10-02T23:23:55.868Z,15.08
2022-10-02T23:26:48.584Z,15.09
2022-10-02T23:29:15.154Z,15.13
2022-10-02T23:31:54.020Z,15.08
2022-10-02T23:34:37.006Z,15.11
2022-10-02T23:37:25.203Z,15.09
2022-10-02T23:39:51.586Z,15.11
2022-10-02T23:42:35.316Z,15.05
2022-10-02T23:45:24.071Z,15.08
2022-10-02T23:48:04.181Z,15.13
2022-10-02T23:50:46.984Z,15.16
2022-10-02T23:53:49.565Z,15.20
2022-10-02T23:56:32.032Z,15.20
2022-10-02T23:59:17.322Z,15.18
